Praesel, Texas
Current Conditions -  °F | °C
As of 5:55 PM on Saturday 27 Dec 2014 (Local Time) from KT35 Reporting Station
Overcast Overcast  
Wind Chill: 34°   Ceiling: 1900
Heat Index: 43°   Visibility: 10mi
Dew Point: 37°   Wind: 22mph
Humidity: 79%   Direction: 360°N
Pressure: 30.2"   Gusts: NA
Location:  30.6499°N, 96.9973°W
Report Text: KT35 272355Z AUTO 36019KT 10SM BKN019 OVC039 06/03 A3020 RMK AO2 T00620028 10079 20062
Loading
Personal Weather Stations






























Interactive Weather Map New forecast layout! Learn more

10-Day Weather Forecast

Advertisements
Track Severe Weather on mobile